Time;durP1;ratioP1;P1;durP2;ratioP2;P2;SDS_P1;SDS_P2;PMS_P1;PMS_P2;Temp;Humidity;BMP_temperature;BMP_pressure;BME280_temperature;BME280_humidity;BME280_pressure;Samples;Min_cycle;Max_cycle;Signal;HPM_P1;HPM_P2
2023/09/26 00:00:22;;;;;;;2.92;1.20;;;15.70;62.50;;;;;;2621956;52;20931;-65
2023/09/26 00:02:50;;;;;;;2.60;1.00;;;15.60;62.30;;;;;;2623096;52;21351;-67
2023/09/26 00:05:18;;;;;;;3.78;1.30;;;15.60;62.40;;;;;;2361764;53;20953;-67
2023/09/26 00:07:44;;;;;;;2.10;1.10;;;15.50;62.50;;;;;;2616376;52;21209;-66
2023/09/26 00:10:11;;;;;;;2.95;1.20;;;15.50;62.50;;;;;;2365265;53;21743;-65
2023/09/26 00:12:38;;;;;;;2.42;1.02;;;15.50;62.50;;;;;;2369892;53;20993;-66
2023/09/26 00:15:06;;;;;;;1.85;1.00;;;15.50;62.50;;;;;;2369890;53;21775;-66
2023/09/26 00:17:33;;;;;;;2.60;1.10;;;15.40;63.10;;;;;;2621778;52;20974;-69
2023/09/26 00:20:04;;;;;;;2.25;1.00;;;15.50;62.60;;;;;;2342175;54;22034;-71
2023/09/26 00:22:31;;;;;;;3.62;1.30;;;15.40;62.60;;;;;;2610486;52;20948;-68
2023/09/26 00:24:57;;;;;;;3.15;1.30;;;15.40;62.60;;;;;;2622398;52;20962;-69
2023/09/26 00:27:24;;;;;;;3.20;1.25;;;15.30;62.60;;;;;;2622007;52;20922;-67
2023/09/26 00:29:50;;;;;;;2.85;1.25;;;15.40;62.70;;;;;;2622505;52;20950;-67
2023/09/26 00:32:16;;;;;;;2.55;1.20;;;15.30;62.70;;;;;;2335445;54;21777;-68
2023/09/26 00:34:43;;;;;;;2.50;1.12;;;15.30;62.80;;;;;;2363779;53;20986;-70
2023/09/26 00:37:10;;;;;;;2.70;1.05;;;15.30;62.80;;;;;;2369647;53;20918;-69
2023/09/26 00:39:38;;;;;;;2.75;1.10;;;15.30;62.80;;;;;;2363037;54;20950;-70
2023/09/26 00:42:05;;;;;;;2.62;1.17;;;15.30;62.80;;;;;;2369952;53;20970;-68
2023/09/26 00:44:31;;;;;;;2.60;1.10;;;15.30;62.80;;;;;;2622339;52;20967;-71
2023/09/26 00:46:59;;;;;;;3.33;1.00;;;15.20;62.70;;;;;;2622654;52;20962;-69
2023/09/26 00:49:28;;;;;;;2.60;1.20;;;15.20;62.60;;;;;;2369430;53;20977;-69
2023/09/26 00:51:54;;;;;;;2.80;1.10;;;15.20;62.70;;;;;;2622303;52;21530;-68
2023/09/26 00:54:21;;;;;;;2.55;1.00;;;15.20;62.80;;;;;;2621685;52;20982;-72
2023/09/26 00:56:49;;;;;;;4.10;1.20;;;15.10;62.70;;;;;;2622883;52;20978;-71
2023/09/26 00:59:16;;;;;;;2.60;1.00;;;15.10;62.70;;;;;;2369762;53;20929;-69
2023/09/26 01:01:45;;;;;;;2.47;1.30;;;15.10;62.80;;;;;;2369914;53;20947;-68
2023/09/26 01:04:12;;;;;;;2.20;1.00;;;15.10;62.90;;;;;;2369502;53;21044;-69
2023/09/26 01:06:38;;;;;;;2.83;1.10;;;15.10;62.90;;;;;;2373706;53;20930;-71
2023/09/26 01:09:06;;;;;;;2.95;1.12;;;15.00;63.50;;;;;;2622328;52;20933;-70
2023/09/26 01:11:32;;;;;;;2.33;1.15;;;15.00;62.70;;;;;;2621330;52;21518;-68
2023/09/26 01:13:58;;;;;;;2.60;1.17;;;15.00;62.80;;;;;;2622729;52;20922;-69
2023/09/26 01:16:24;;;;;;;2.28;1.08;;;15.10;63.00;;;;;;2369820;53;20993;-68
2023/09/26 01:18:51;;;;;;;2.92;1.08;;;15.00;62.90;;;;;;2370629;53;20998;-71
2023/09/26 01:21:17;;;;;;;2.37;1.10;;;15.00;63.00;;;;;;2622143;52;21399;-68
2023/09/26 01:23:49;;;;;;;2.30;1.10;;;14.90;62.80;;;;;;2370075;53;21812;-72
2023/09/26 01:26:15;;;;;;;2.97;1.40;;;14.90;62.80;;;;;;2622538;52;21539;-71
2023/09/26 01:28:42;;;;;;;2.75;1.10;;;14.90;62.80;;;;;;2370005;53;20969;-69
2023/09/26 01:31:08;;;;;;;3.37;1.60;;;14.90;62.90;;;;;;2623068;52;20947;-67
2023/09/26 01:33:36;;;;;;;2.30;1.10;;;14.90;62.90;;;;;;2370076;53;21002;-70
2023/09/26 01:36:02;;;;;;;3.92;1.08;;;14.80;62.80;;;;;;2370507;53;21133;-68
2023/09/26 01:38:29;;;;;;;4.10;1.30;;;14.80;62.80;;;;;;2621848;52;20954;-71
2023/09/26 01:40:55;;;;;;;3.65;1.10;;;14.80;62.80;;;;;;2370240;53;20993;-70
2023/09/26 01:43:22;;;;;;;2.30;1.10;;;14.80;62.80;;;;;;2364573;53;20933;-70
2023/09/26 01:45:48;;;;;;;2.70;1.00;;;14.80;62.80;;;;;;2365629;53;21727;-72
2023/09/26 01:48:14;;;;;;;2.67;1.35;;;14.80;62.70;;;;;;2371895;53;21518;-67
2023/09/26 01:50:42;;;;;;;2.00;1.00;;;14.70;62.50;;;;;;2612774;52;20900;-69
2023/09/26 01:53:10;;;;;;;2.65;1.05;;;14.70;62.50;;;;;;2622979;52;20934;-71
2023/09/26 01:55:38;;;;;;;4.15;1.23;;;14.60;62.50;;;;;;2622871;52;21731;-68
2023/09/26 01:58:04;;;;;;;2.37;1.00;;;14.60;62.60;;;;;;2622750;52;20949;-71
2023/09/26 02:00:31;;;;;;;3.62;1.37;;;14.60;62.80;;;;;;2369861;53;21544;-70
2023/09/26 02:02:58;;;;;;;4.10;1.20;;;14.60;62.90;;;;;;2622263;52;20982;-72
2023/09/26 02:05:25;;;;;;;2.62;1.00;;;14.50;62.90;;;;;;2621155;52;21138;-68
2023/09/26 02:07:51;;;;;;;2.03;0.98;;;14.50;62.90;;;;;;2621957;52;21387;-68
2023/09/26 02:10:17;;;;;;;2.03;0.93;;;14.50;63.00;;;;;;2621001;52;21013;-68
2023/09/26 02:12:48;;;;;;;2.60;1.12;;;14.50;63.00;;;;;;2370269;53;21004;-68
2023/09/26 02:15:14;;;;;;;2.50;1.17;;;14.50;63.00;;;;;;2369696;53;21814;-68
2023/09/26 02:17:42;;;;;;;2.83;1.25;;;14.50;63.10;;;;;;2622650;52;20974;-68
2023/09/26 02:20:12;;;;;;;2.42;1.10;;;14.40;63.00;;;;;;2370307;53;20943;-68
2023/09/26 02:22:47;;;;;;;4.68;1.20;;;14.40;63.00;;;;;;2613953;52;20930;-68
2023/09/26 02:25:14;;;;;;;2.15;1.02;;;14.40;62.90;;;;;;2370222;53;21983;-68
2023/09/26 02:27:43;;;;;;;2.20;1.10;;;14.40;63.00;;;;;;2370295;53;21017;-68
2023/09/26 02:30:11;;;;;;;3.53;1.20;;;14.40;63.00;;;;;;2623067;52;20911;-68
2023/09/26 02:32:37;;;;;;;2.72;1.02;;;14.30;62.90;;;;;;2622161;52;21069;-68
2023/09/26 02:35:07;;;;;;;2.92;1.20;;;14.40;63.10;;;;;;2622850;52;21001;-68
2023/09/26 02:37:34;;;;;;;2.10;1.00;;;14.30;63.00;;;;;;2622230;52;20938;-68
2023/09/26 02:40:05;;;;;;;3.75;1.40;;;14.30;63.00;;;;;;2622905;52;20950;-69
2023/09/26 02:42:34;;;;;;;2.22;1.17;;;14.30;63.00;;;;;;2370195;53;20946;-68
2023/09/26 02:45:03;;;;;;;2.20;1.10;;;14.20;62.80;;;;;;2370557;53;20937;-69
2023/09/26 02:47:29;;;;;;;2.65;1.15;;;14.20;62.90;;;;;;2369634;53;21063;-68
2023/09/26 02:49:56;;;;;;;3.67;1.25;;;14.20;62.90;;;;;;2621521;52;20958;-68
2023/09/26 02:52:25;;;;;;;2.40;1.10;;;14.20;63.70;;;;;;2612911;52;20964;-68
2023/09/26 02:54:52;;;;;;;4.05;1.17;;;14.20;63.00;;;;;;2621727;52;20986;-68
2023/09/26 02:57:18;;;;;;;2.58;1.08;;;14.10;62.90;;;;;;2622611;52;20927;-68
2023/09/26 02:59:46;;;;;;;2.53;1.12;;;14.20;63.10;;;;;;2622805;52;20997;-68
2023/09/26 03:02:12;;;;;;;2.30;1.17;;;14.10;63.10;;;;;;2370422;53;21396;-68
2023/09/26 03:04:39;;;;;;;4.57;1.60;;;14.10;63.10;;;;;;2622237;52;21388;-68
2023/09/26 03:07:05;;;;;;;3.00;1.50;;;14.10;63.20;;;;;;2370209;53;21727;-68
2023/09/26 03:09:31;;;;;;;2.80;1.20;;;14.10;63.30;;;;;;2369478;53;21041;-68
2023/09/26 03:11:58;;;;;;;2.72;1.40;;;14.10;63.30;;;;;;2369467;53;20930;-68
2023/09/26 03:14:25;;;;;;;3.70;1.20;;;14.00;63.30;;;;;;2622494;52;21018;-68
2023/09/26 03:16:51;;;;;;;2.20;1.10;;;14.10;63.30;;;;;;2622900;52;20981;-69
2023/09/26 03:19:23;;;;;;;2.72;1.08;;;14.00;63.30;;;;;;2621917;52;20981;-68
2023/09/26 03:21:52;;;;;;;2.20;0.90;;;14.10;63.30;;;;;;2370038;53;20959;-68
2023/09/26 03:24:18;;;;;;;2.78;1.20;;;14.00;63.20;;;;;;2369640;53;21010;-68
2023/09/26 03:26:45;;;;;;;2.08;0.90;;;14.00;63.10;;;;;;2622697;52;20896;-68
2023/09/26 03:29:11;;;;;;;2.22;1.12;;;14.00;63.10;;;;;;2623059;52;20923;-69
2023/09/26 03:31:41;;;;;;;2.45;0.80;;;14.00;63.10;;;;;;2622136;52;21050;-68
2023/09/26 03:34:08;;;;;;;2.30;1.10;;;14.00;63.20;;;;;;2622793;52;20934;-69
2023/09/26 03:36:36;;;;;;;2.05;0.90;;;13.90;63.10;;;;;;2621655;52;20911;-68
2023/09/26 03:39:03;;;;;;;2.70;1.30;;;13.90;63.20;;;;;;2370405;53;20954;-68
2023/09/26 03:41:31;;;;;;;2.75;1.17;;;13.90;63.20;;;;;;2369426;53;20970;-68
2023/09/26 03:43:57;;;;;;;2.83;1.10;;;13.90;63.30;;;;;;2622538;52;20926;-68
2023/09/26 03:46:23;;;;;;;2.20;1.00;;;13.90;63.40;;;;;;2369902;53;20934;-69
2023/09/26 03:48:51;;;;;;;2.70;1.35;;;13.90;63.40;;;;;;2623180;52;21363;-68
2023/09/26 03:51:17;;;;;;;2.72;1.12;;;13.70;63.10;;;;;;2622796;52;20923;-67
2023/09/26 03:53:44;;;;;;;2.92;1.25;;;14.00;63.50;;;;;;2370208;53;20898;-68
2023/09/26 03:56:11;;;;;;;2.72;1.20;;;13.90;63.40;;;;;;2621800;52;20951;-68
2023/09/26 03:58:37;;;;;;;2.37;1.05;;;13.90;63.40;;;;;;2622327;52;20894;-69
2023/09/26 04:01:16;;;;;;;2.35;1.00;;;13.90;63.30;;;;;;2622573;52;20946;-69
2023/09/26 04:03:46;;;;;;;2.08;1.08;;;13.80;62.90;;;;;;2609658;53;21012;-69
2023/09/26 04:06:15;;;;;;;2.62;1.20;;;13.80;63.20;;;;;;2363674;53;20985;-68
2023/09/26 04:08:41;;;;;;;2.40;1.10;;;13.90;63.30;;;;;;2369535;53;20902;-69
2023/09/26 04:11:14;;;;;;;3.15;1.40;;;13.80;63.20;;;;;;2370048;53;20906;-68
2023/09/26 04:13:41;;;;;;;2.70;1.10;;;13.80;63.20;;;;;;2369266;53;22223;-69
2023/09/26 04:16:08;;;;;;;2.45;1.10;;;13.80;63.40;;;;;;2622499;52;21200;-68
2023/09/26 04:18:35;;;;;;;2.70;1.20;;;13.80;63.30;;;;;;2369809;53;21383;-68
2023/09/26 04:21:06;;;;;;;2.67;1.27;;;13.70;63.20;;;;;;2622768;52;20919;-69
2023/09/26 04:23:34;;;;;;;3.47;1.30;;;13.70;63.20;;;;;;2613614;52;20930;-68
2023/09/26 04:26:13;;;;;;;3.05;1.08;;;13.70;63.20;;;;;;2369709;53;20946;-68
2023/09/26 04:28:41;;;;;;;2.28;1.00;;;13.70;63.10;;;;;;2621586;52;21824;-68
2023/09/26 04:31:17;;;;;;;3.05;0.90;;;13.70;63.20;;;;;;2352988;53;20999;-69
2023/09/26 04:33:44;;;;;;;3.62;1.10;;;13.70;63.10;;;;;;2603759;52;21451;-69
2023/09/26 04:36:11;;;;;;;2.40;1.02;;;13.70;63.20;;;;;;2370656;53;21534;-68
2023/09/26 04:38:37;;;;;;;2.65;0.98;;;13.60;63.10;;;;;;2622345;52;20914;-68
2023/09/26 04:41:05;;;;;;;2.22;1.02;;;13.60;63.80;;;;;;2612220;52;20992;-68
2023/09/26 04:43:32;;;;;;;3.55;1.33;;;13.60;63.10;;;;;;2620059;52;20993;-68
2023/09/26 04:45:58;;;;;;;2.87;1.25;;;13.60;63.20;;;;;;2370079;53;20927;-68
2023/09/26 04:48:24;;;;;;;2.20;1.05;;;13.50;63.20;;;;;;2370132;53;20973;-68
2023/09/26 04:50:51;;;;;;;2.35;1.20;;;13.50;63.30;;;;;;2622158;52;20918;-68
2023/09/26 04:53:18;;;;;;;2.25;1.10;;;13.50;63.40;;;;;;2622583;52;21018;-68
2023/09/26 04:55:45;;;;;;;2.90;1.27;;;13.50;63.30;;;;;;2619960;52;21861;-68
2023/09/26 04:58:11;;;;;;;3.10;1.10;;;13.50;63.30;;;;;;2363613;53;20986;-68
2023/09/26 05:00:37;;;;;;;3.65;1.50;;;13.50;63.30;;;;;;2622274;52;20991;-68
2023/09/26 05:03:04;;;;;;;2.97;1.37;;;13.50;63.30;;;;;;2370195;53;21009;-69
2023/09/26 05:05:31;;;;;;;2.70;1.20;;;13.50;63.40;;;;;;2369897;53;20883;-68
2023/09/26 05:07:57;;;;;;;2.95;1.00;;;13.40;63.30;;;;;;2370919;53;21501;-68
2023/09/26 05:10:24;;;;;;;3.65;1.10;;;13.40;63.30;;;;;;2622652;52;20911;-68
2023/09/26 05:12:50;;;;;;;2.50;1.10;;;13.40;63.30;;;;;;2370346;53;20914;-68
2023/09/26 05:15:17;;;;;;;2.58;1.00;;;13.40;63.30;;;;;;2620712;52;20961;-68
2023/09/26 05:17:47;;;;;;;2.85;1.23;;;13.40;63.30;;;;;;2369878;53;21041;-68
2023/09/26 05:20:13;;;;;;;3.00;1.15;;;13.40;63.30;;;;;;2616352;52;21497;-69
2023/09/26 05:22:41;;;;;;;2.50;1.30;;;13.40;63.30;;;;;;2621008;52;20951;-67
2023/09/26 05:25:08;;;;;;;2.40;1.10;;;13.30;63.20;;;;;;2366200;53;21390;-68
2023/09/26 05:27:36;;;;;;;3.70;1.10;;;13.30;63.30;;;;;;2368483;53;20976;-69
2023/09/26 05:30:03;;;;;;;3.62;1.20;;;13.30;63.20;;;;;;2369508;53;20954;-68
2023/09/26 05:32:29;;;;;;;3.35;1.30;;;13.30;63.20;;;;;;2622137;52;20918;-68
2023/09/26 05:34:56;;;;;;;2.42;1.08;;;13.30;63.40;;;;;;2621984;52;20898;-68
2023/09/26 05:37:22;;;;;;;2.80;1.20;;;13.30;63.40;;;;;;2622180;52;20922;-69
2023/09/26 05:39:48;;;;;;;3.95;1.20;;;13.30;63.40;;;;;;2594518;52;20954;-68
2023/09/26 05:42:15;;;;;;;2.90;1.20;;;13.30;63.50;;;;;;2604698;52;21003;-68
2023/09/26 05:44:41;;;;;;;3.20;1.37;;;13.30;63.60;;;;;;2591338;52;20940;-68
2023/09/26 05:47:07;;;;;;;3.00;1.20;;;13.30;63.60;;;;;;2588174;52;20917;-69
2023/09/26 05:49:34;;;;;;;2.50;1.10;;;13.20;63.50;;;;;;2588357;52;21020;-68
2023/09/26 05:52:02;;;;;;;2.90;1.08;;;13.30;63.50;;;;;;2341411;53;20909;-68
2023/09/26 05:54:32;;;;;;;4.05;1.30;;;13.20;63.40;;;;;;2587899;52;20948;-68
2023/09/26 05:56:59;;;;;;;2.67;1.30;;;13.20;63.40;;;;;;2588292;52;20938;-69
2023/09/26 05:59:25;;;;;;;3.30;1.20;;;13.20;63.60;;;;;;2588592;52;21389;-68
2023/09/26 06:01:53;;;;;;;2.87;1.20;;;13.20;63.60;;;;;;2341909;53;20956;-68
2023/09/26 06:04:19;;;;;;;2.62;1.08;;;13.20;63.60;;;;;;2342581;53;20942;-69
2023/09/26 06:06:46;;;;;;;2.28;1.10;;;13.30;63.70;;;;;;2342519;53;21838;-68
2023/09/26 06:09:13;;;;;;;3.37;1.33;;;13.20;63.70;;;;;;2587979;52;21448;-68
2023/09/26 06:11:40;;;;;;;3.53;1.20;;;13.20;63.70;;;;;;2587659;52;21817;-68
2023/09/26 06:14:06;;;;;;;3.15;1.23;;;13.30;63.80;;;;;;2342224;53;20922;-68
2023/09/26 06:16:34;;;;;;;2.45;1.10;;;13.20;63.70;;;;;;2339643;53;20933;-69
2023/09/26 06:19:00;;;;;;;3.67;1.33;;;13.20;63.80;;;;;;2342041;53;20940;-67
2023/09/26 06:21:26;;;;;;;2.80;1.35;;;13.20;63.80;;;;;;2365148;54;20926;-66
2023/09/26 06:23:55;;;;;;;2.65;1.10;;;13.20;63.90;;;;;;2607428;52;21013;-66
2023/09/26 06:26:21;;;;;;;3.83;1.20;;;13.20;64.00;;;;;;2346766;53;20962;-67
2023/09/26 06:28:49;;;;;;;2.37;1.10;;;13.20;64.10;;;;;;2587654;52;20948;-68
2023/09/26 06:31:15;;;;;;;3.97;1.50;;;13.30;64.20;;;;;;2341813;53;20944;-67
2023/09/26 06:33:41;;;;;;;2.45;1.20;;;13.30;64.30;;;;;;2588516;52;20952;-67
2023/09/26 06:36:15;;;;;;;3.53;1.75;;;13.30;64.40;;;;;;2588142;52;20988;-67
2023/09/26 06:38:41;;;;;;;2.75;1.52;;;13.30;64.50;;;;;;2342010;53;20917;-66
2023/09/26 06:41:10;;;;;;;3.50;1.48;;;13.30;64.60;;;;;;2342073;53;21000;-67
2023/09/26 06:43:40;;;;;;;5.70;1.48;;;13.40;64.80;;;;;;2588167;52;20944;-68
2023/09/26 06:46:08;;;;;;;4.05;1.90;;;13.40;64.90;;;;;;2587783;52;21417;-67
2023/09/26 06:48:37;;;;;;;4.07;2.37;;;13.40;64.90;;;;;;2341551;53;21036;-68
2023/09/26 06:51:03;;;;;;;3.45;1.70;;;13.50;65.90;;;;;;2341809;53;20928;-67
2023/09/26 06:53:30;;;;;;;3.67;1.80;;;13.50;65.20;;;;;;2342317;53;20920;-67
2023/09/26 06:56:15;;;;;;;3.17;1.52;;;13.50;65.30;;;;;;2340965;53;20932;-67
2023/09/26 06:58:43;;;;;;;3.37;1.80;;;13.60;65.50;;;;;;2346118;53;21006;-68
2023/09/26 07:01:14;;;;;;;3.70;2.15;;;13.60;65.60;;;;;;2341623;53;21373;-67
2023/09/26 07:03:41;;;;;;;3.70;2.00;;;13.70;65.80;;;;;;2588163;52;20936;-68
2023/09/26 07:06:09;;;;;;;3.30;1.87;;;13.70;65.90;;;;;;2342162;53;21354;-67
2023/09/26 07:08:36;;;;;;;4.45;2.08;;;13.80;66.10;;;;;;2341979;53;21040;-67
2023/09/26 07:11:03;;;;;;;4.12;2.03;;;13.90;66.30;;;;;;2587866;52;20897;-67
2023/09/26 07:13:29;;;;;;;3.97;1.80;;;13.90;66.40;;;;;;2344572;53;21033;-68
2023/09/26 07:16:05;;;;;;;3.08;1.50;;;14.00;66.40;;;;;;2588618;52;21037;-67
2023/09/26 07:18:32;;;;;;;4.55;1.90;;;14.10;66.60;;;;;;2342289;53;21350;-68
2023/09/26 07:21:04;;;;;;;3.83;2.05;;;14.20;66.70;;;;;;2342297;53;21656;-67
2023/09/26 07:23:35;;;;;;;2.85;1.67;;;14.20;66.80;;;;;;2592975;52;20929;-67
2023/09/26 07:26:12;;;;;;;3.62;1.73;;;14.30;67.60;;;;;;2353910;53;21024;-68
2023/09/26 07:28:41;;;;;;;4.07;2.50;;;14.40;67.00;;;;;;2342735;53;21016;-67
2023/09/26 07:31:09;;;;;;;3.65;2.00;;;14.50;67.10;;;;;;2342900;53;20981;-67
2023/09/26 07:33:35;;;;;;;3.60;1.75;;;14.50;67.10;;;;;;2342839;53;20925;-68
2023/09/26 07:36:02;;;;;;;3.45;1.85;;;14.60;67.30;;;;;;2356869;53;21406;-67
2023/09/26 07:38:31;;;;;;;3.97;1.80;;;14.70;67.40;;;;;;2593464;52;22130;-68
2023/09/26 07:40:59;;;;;;;2.40;1.30;;;14.80;67.50;;;;;;2364502;53;20937;-69
2023/09/26 07:43:34;;;;;;;3.00;1.30;;;14.90;67.60;;;;;;2622570;52;20995;-67
2023/09/26 07:46:09;;;;;;;3.70;1.40;;;14.90;67.60;;;;;;2370398;53;20926;-68
2023/09/26 07:48:35;;;;;;;3.00;1.48;;;15.00;67.90;;;;;;2369833;53;20963;-68
2023/09/26 07:51:05;;;;;;;2.80;1.40;;;15.10;68.00;;;;;;2370179;53;20982;-67
2023/09/26 07:53:32;;;;;;;3.08;1.45;;;15.20;68.10;;;;;;2370912;53;20961;-67
2023/09/26 07:55:58;;;;;;;2.92;1.30;;;15.30;68.10;;;;;;2622205;52;20966;-68
2023/09/26 07:58:25;;;;;;;2.83;1.30;;;15.40;68.20;;;;;;2622495;52;21013;-68
2023/09/26 08:00:54;;;;;;;2.35;1.17;;;15.50;68.40;;;;;;2370021;53;20950;-68
2023/09/26 08:03:21;;;;;;;2.70;1.50;;;15.60;68.40;;;;;;2623222;52;20933;-68
2023/09/26 08:05:48;;;;;;;2.78;1.27;;;15.70;68.60;;;;;;2370055;53;20978;-67
2023/09/26 08:08:15;;;;;;;2.83;1.40;;;15.70;68.50;;;;;;2622494;52;21006;-65
2023/09/26 08:10:41;;;;;;;3.83;1.70;;;15.80;68.70;;;;;;2622398;52;21485;-66
2023/09/26 08:13:07;;;;;;;3.58;1.40;;;15.90;68.70;;;;;;2370391;53;21707;-66
2023/09/26 08:15:34;;;;;;;2.40;1.27;;;16.00;68.80;;;;;;2370366;53;20942;-65
2023/09/26 08:18:05;;;;;;;2.40;1.23;;;16.10;68.90;;;;;;2370051;53;20907;-65
2023/09/26 08:20:31;;;;;;;3.28;1.67;;;16.30;68.90;;;;;;2588935;52;20976;-66
2023/09/26 08:22:58;;;;;;;3.37;1.20;;;16.40;69.00;;;;;;2587837;52;20965;-66
2023/09/26 08:25:25;;;;;;;3.30;1.60;;;16.50;69.00;;;;;;2588318;52;21820;-65
2023/09/26 08:27:51;;;;;;;3.03;1.25;;;16.60;69.10;;;;;;2342252;53;20948;-65
2023/09/26 08:30:18;;;;;;;3.62;1.30;;;16.70;69.10;;;;;;2339546;53;20954;-65
2023/09/26 08:32:44;;;;;;;2.33;1.20;;;16.80;69.10;;;;;;2349836;53;20949;-65
2023/09/26 08:35:11;;;;;;;4.72;1.70;;;16.90;69.10;;;;;;2601227;52;21017;-67
2023/09/26 08:37:37;;;;;;;2.78;1.42;;;16.90;69.00;;;;;;2353567;53;21013;-65
2023/09/26 08:40:13;;;;;;;2.92;1.55;;;17.10;69.10;;;;;;2342279;53;21048;-65
2023/09/26 08:42:42;;;;;;;2.72;1.42;;;17.10;68.90;;;;;;2341773;53;20937;-66
2023/09/26 08:45:08;;;;;;;3.03;1.58;;;17.30;69.10;;;;;;2342488;53;20916;-66
2023/09/26 08:47:39;;;;;;;2.90;1.37;;;17.40;69.20;;;;;;2578581;53;21293;-65
2023/09/26 08:50:06;;;;;;;2.95;1.42;;;17.50;69.40;;;;;;2342752;53;21059;-66
2023/09/26 08:52:33;;;;;;;3.15;1.40;;;17.60;69.40;;;;;;2588735;52;20928;-66
2023/09/26 08:55:03;;;;;;;3.20;1.52;;;17.70;69.50;;;;;;2588209;52;20968;-66
2023/09/26 08:57:31;;;;;;;2.72;1.42;;;17.90;69.60;;;;;;2589051;52;21285;-66
2023/09/26 08:59:57;;;;;;;2.22;1.27;;;17.90;69.50;;;;;;2586751;52;20985;-65
2023/09/26 09:02:23;;;;;;;3.05;1.62;;;18.00;69.40;;;;;;2604476;52;20933;-66
2023/09/26 09:04:50;;;;;;;5.65;1.60;;;18.10;69.30;;;;;;2343848;53;21406;-66
2023/09/26 09:07:16;;;;;;;2.53;1.30;;;18.20;69.30;;;;;;2342217;53;21012;-65
2023/09/26 09:10:06;;;;;;;4.43;1.52;;;18.30;69.10;;;;;;2601663;52;20980;-66
2023/09/26 09:12:37;;;;;;;3.10;1.30;;;18.40;68.50;;;;;;2344324;53;20984;-65
2023/09/26 09:15:20;;;;;;;2.25;1.20;;;18.50;68.70;;;;;;2342815;53;20940;-67
2023/09/26 09:17:47;;;;;;;2.55;1.15;;;18.60;68.20;;;;;;2589325;52;20937;-67
2023/09/26 09:20:17;;;;;;;4.55;1.55;;;18.70;68.80;;;;;;2342087;53;20956;-65
2023/09/26 09:22:46;;;;;;;3.33;1.65;;;18.80;68.90;;;;;;2342726;53;20988;-66
2023/09/26 09:25:12;;;;;;;4.47;1.85;;;18.80;68.70;;;;;;2589350;52;20953;-66
2023/09/26 09:27:43;;;;;;;3.62;1.48;;;18.90;68.90;;;;;;2342971;53;20989;-65
2023/09/26 09:30:15;;;;;;;3.08;1.87;;;19.00;68.90;;;;;;2342651;54;21832;-67
2023/09/26 09:32:52;;;;;;;3.10;1.50;;;19.10;68.80;;;;;;2589420;52;20943;-66
2023/09/26 09:35:19;;;;;;;4.62;1.60;;;19.20;68.60;;;;;;2588574;52;20939;-66
2023/09/26 09:37:46;;;;;;;2.78;1.58;;;19.30;68.90;;;;;;2342886;53;20942;-64
2023/09/26 09:40:19;;;;;;;3.12;1.35;;;19.40;68.70;;;;;;2342212;53;21006;-67
2023/09/26 09:42:52;;;;;;;3.97;1.40;;;19.50;68.40;;;;;;2344352;54;21016;-65
2023/09/26 09:45:18;;;;;;;;;;;19.50;68.50;;;;;;2605204;52;21384;-66
2023/09/26 09:47:48;;;;;;;3.10;1.40;;;19.60;67.90;;;;;;2605988;52;20253;-65
2023/09/26 09:50:14;;;;;;;2.33;0.98;;;19.80;68.80;;;;;;2572762;52;20957;-66
2023/09/26 09:52:43;;;;;;;3.53;1.48;;;19.80;68.70;;;;;;2594580;52;20990;-66
2023/09/26 09:55:20;;;;;;;4.12;1.52;;;19.90;68.80;;;;;;2342786;53;20956;-66
2023/09/26 09:57:49;;;;;;;3.95;1.40;;;20.00;68.50;;;;;;2342608;53;21008;-66
2023/09/26 10:00:19;;;;;;;2.75;1.40;;;20.10;68.60;;;;;;2342029;53;20927;-65
2023/09/26 10:02:50;;;;;;;3.28;1.40;;;20.10;68.60;;;;;;2588982;52;21479;-66
2023/09/26 10:05:16;;;;;;;3.08;1.45;;;20.30;68.50;;;;;;2588414;52;20962;-66
2023/09/26 10:07:46;;;;;;;3.30;1.50;;;20.40;68.60;;;;;;2372617;53;21261;-65
2023/09/26 10:10:13;;;;;;;2.45;1.17;;;20.50;68.30;;;;;;2343089;53;20945;-66
2023/09/26 10:12:40;;;;;;;3.72;1.30;;;20.50;68.30;;;;;;2342617;53;20981;-66
2023/09/26 10:15:16;;;;;;;3.92;1.40;;;20.60;68.20;;;;;;2343498;53;20929;-65
2023/09/26 10:17:46;;;;;;;3.45;1.55;;;20.70;68.20;;;;;;2581015;52;21303;-66
2023/09/26 10:20:15;;;;;;;2.97;1.30;;;20.80;68.10;;;;;;2363594;53;20998;-66
2023/09/26 10:23:09;;;;;;;2.67;1.33;;;20.90;68.00;;;;;;2605816;52;21751;-66
2023/09/26 10:25:36;;;;;;;3.17;1.30;;;21.00;67.30;;;;;;2363136;53;20894;-67
2023/09/26 10:28:04;;;;;;;3.25;1.17;;;21.10;67.90;;;;;;2371744;53;21078;-65
2023/09/26 10:30:55;;;;;;;2.58;1.37;;;21.20;67.80;;;;;;2605008;52;20946;-66
2023/09/26 10:33:21;;;;;;;2.45;1.40;;;21.30;67.00;;;;;;2616769;52;20938;-66
2023/09/26 10:36:00;;;;;;;2.70;1.05;;;21.30;67.60;;;;;;2369998;53;20939;-67
2023/09/26 10:38:27;;;;;;;2.70;1.35;;;21.40;67.00;;;;;;2370364;53;20951;-66
2023/09/26 10:40:53;;;;;;;2.37;1.00;;;21.50;67.40;;;;;;2370678;53;20977;-66
2023/09/26 10:43:20;;;;;;;2.70;1.20;;;21.60;67.30;;;;;;2623841;52;20909;-67
2023/09/26 10:45:49;;;;;;;2.45;1.12;;;21.60;67.10;;;;;;2600618;52;20937;-65
2023/09/26 10:48:19;;;;;;;2.97;1.20;;;21.70;67.10;;;;;;2370524;53;21732;-66
2023/09/26 10:50:46;;;;;;;3.15;1.20;;;21.80;66.80;;;;;;2623167;52;21050;-66
2023/09/26 10:53:13;;;;;;;3.08;1.25;;;21.90;67.00;;;;;;2370466;53;21696;-66
2023/09/26 10:55:40;;;;;;;2.67;1.15;;;21.90;66.90;;;;;;2370560;53;20943;-66
2023/09/26 10:58:06;;;;;;;3.87;1.20;;;22.10;66.80;;;;;;2369946;53;20966;-66
2023/09/26 11:00:36;;;;;;;3.10;1.30;;;22.10;66.70;;;;;;2370813;53;20906;-67
2023/09/26 11:03:04;;;;;;;2.30;1.00;;;22.20;66.30;;;;;;2371904;53;20937;-67
2023/09/26 11:05:33;;;;;;;2.50;1.10;;;22.30;66.30;;;;;;2618697;52;20978;-67
2023/09/26 11:08:00;;;;;;;2.42;1.20;;;22.40;66.00;;;;;;2622611;52;21397;-66
2023/09/26 11:10:29;;;;;;;2.83;1.20;;;22.40;66.10;;;;;;2370154;53;20927;-65
2023/09/26 11:12:56;;;;;;;3.87;1.10;;;22.50;65.90;;;;;;2369985;53;21578;-67
2023/09/26 11:15:25;;;;;;;3.30;1.08;;;22.60;66.00;;;;;;2370040;53;20987;-66
2023/09/26 11:17:52;;;;;;;2.47;1.20;;;22.60;65.70;;;;;;2370370;53;20947;-65
2023/09/26 11:20:19;;;;;;;3.28;1.30;;;22.70;66.60;;;;;;2622138;52;20995;-66
2023/09/26 11:22:46;;;;;;;2.83;1.10;;;22.80;65.70;;;;;;2370058;53;20961;-67
2023/09/26 11:25:13;;;;;;;2.50;1.00;;;22.80;65.40;;;;;;2622824;52;20939;-66
2023/09/26 11:27:44;;;;;;;2.50;1.00;;;22.90;65.40;;;;;;2369696;53;20998;-66
2023/09/26 11:30:20;;;;;;;2.55;1.20;;;23.00;64.80;;;;;;2622695;52;21467;-66
2023/09/26 11:32:54;;;;;;;2.85;1.20;;;23.10;64.50;;;;;;2369713;53;21918;-66
2023/09/26 11:35:21;;;;;;;2.62;1.10;;;23.10;64.80;;;;;;2621980;52;21514;-67
2023/09/26 11:37:51;;;;;;;2.58;0.93;;;23.20;64.60;;;;;;2370077;53;21025;-66
2023/09/26 11:40:24;;;;;;;2.25;0.95;;;23.30;64.70;;;;;;2369839;53;20982;-67
2023/09/26 11:42:52;;;;;;;4.25;1.10;;;23.30;63.90;;;;;;2370422;53;20935;-67
2023/09/26 11:45:37;;;;;;;3.25;1.23;;;23.40;64.30;;;;;;2622521;52;20938;-66
2023/09/26 11:48:05;;;;;;;2.08;1.08;;;23.50;62.90;;;;;;2370414;53;20993;-66
2023/09/26 11:50:34;;;;;;;2.70;1.30;;;23.50;64.00;;;;;;2369704;53;21061;-66
2023/09/26 11:53:01;;;;;;;2.25;1.08;;;23.60;64.10;;;;;;2369396;53;20977;-69
2023/09/26 11:55:28;;;;;;;3.20;1.40;;;23.60;64.00;;;;;;2365638;53;20913;-71
2023/09/26 11:58:03;;;;;;;2.90;1.15;;;23.70;63.80;;;;;;2618905;52;20918;-69
2023/09/26 12:00:30;;;;;;;2.83;1.00;;;23.80;63.80;;;;;;2368629;53;21392;-68
2023/09/26 12:02:57;;;;;;;2.87;1.12;;;23.80;64.20;;;;;;2621296;52;20939;-69
2023/09/26 12:05:24;;;;;;;2.30;1.10;;;23.90;63.40;;;;;;2621458;52;21252;-71
2023/09/26 12:07:50;;;;;;;2.37;1.10;;;23.90;63.30;;;;;;2621939;52;20970;-68
2023/09/26 12:10:22;;;;;;;3.40;1.00;;;24.00;63.20;;;;;;2363605;53;21574;-68
2023/09/26 12:12:48;;;;;;;2.00;0.90;;;24.10;62.50;;;;;;2370784;53;20934;-71
2023/09/26 12:15:24;;;;;;;1.95;1.00;;;24.10;63.10;;;;;;2369732;53;20938;-69
2023/09/26 12:17:51;;;;;;;2.28;1.10;;;24.20;61.90;;;;;;2369768;53;20994;-68
2023/09/26 12:20:28;;;;;;;2.75;1.15;;;24.20;62.70;;;;;;2365912;53;20945;-70
2023/09/26 12:22:56;;;;;;;1.98;0.90;;;24.30;62.60;;;;;;2369219;53;20915;-69
2023/09/26 12:25:23;;;;;;;1.85;0.88;;;24.40;62.80;;;;;;2369480;53;20874;-69
2023/09/26 12:27:50;;;;;;;2.70;1.20;;;24.40;62.80;;;;;;2370242;53;21357;-69
2023/09/26 12:30:18;;;;;;;2.22;1.00;;;24.40;62.50;;;;;;2368766;53;20990;-69
2023/09/26 12:32:45;;;;;;;1.98;0.80;;;24.50;62.50;;;;;;2615296;52;21123;-69
2023/09/26 12:35:12;;;;;;;1.58;0.73;;;24.60;62.40;;;;;;2365617;53;20954;-68
2023/09/26 12:37:40;;;;;;;2.30;0.90;;;24.60;62.30;;;;;;2373733;53;21408;-67
2023/09/26 12:40:13;;;;;;;2.70;0.77;;;24.70;62.10;;;;;;2620812;52;20950;-69
2023/09/26 12:42:40;;;;;;;2.20;1.00;;;24.80;62.00;;;;;;2372729;53;20930;-70
2023/09/26 12:45:07;;;;;;;2.22;0.98;;;24.80;62.20;;;;;;2360824;53;21026;-69
2023/09/26 12:47:34;;;;;;;2.30;1.10;;;24.80;61.50;;;;;;2369696;53;20997;-70
2023/09/26 12:50:04;;;;;;;1.87;0.80;;;24.90;61.50;;;;;;2621986;52;20941;-68
2023/09/26 12:52:34;;;;;;;2.12;0.90;;;24.90;61.40;;;;;;2353574;54;21057;-69